Time;durP1;ratioP1;P1;durP2;ratioP2;P2;SDS_P1;SDS_P2;PMS_P1;PMS_P2;Temp;Humidity;BMP_temperature;BMP_pressure;BME280_temperature;BME280_humidity;BME280_pressure;Samples;Min_cycle;Max_cycle;Signal;HPM_P1;HPM_P2
2021/12/25 00:00:49;;;;;;;7.27;6.50;;;7.20;99.90;;;;;;5019557;28;20422;-68
2021/12/25 00:03:17;;;;;;;6.33;5.73;;;7.20;99.90;;;;;;5019981;28;20446;-68
2021/12/25 00:05:48;;;;;;;6.67;6.00;;;7.20;99.90;;;;;;5020338;28;20411;-68
2021/12/25 00:08:13;;;;;;;9.40;6.60;;;7.10;99.90;;;;;;5019952;28;20975;-68
2021/12/25 00:10:39;;;;;;;7.20;6.17;;;7.00;99.90;;;;;;5022032;28;20468;-68
2021/12/25 00:13:04;;;;;;;7.20;6.50;;;7.10;99.90;;;;;;5026344;28;20192;-68
2021/12/25 00:15:30;;;;;;;7.20;6.40;;;7.10;99.90;;;;;;5018840;28;20195;-67
2021/12/25 00:17:55;;;;;;;9.67;6.63;;;7.00;99.90;;;;;;5017187;28;20206;-68
2021/12/25 00:20:21;;;;;;;6.97;6.27;;;6.90;99.90;;;;;;5016812;28;20255;-68
2021/12/25 00:22:47;;;;;;;6.63;5.97;;;6.80;99.90;;;;;;5016743;28;20199;-67
2021/12/25 00:25:13;;;;;;;7.30;6.27;;;6.80;99.90;;;;;;5016956;28;20183;-67
2021/12/25 00:27:53;;;;;;;6.13;5.53;;;6.60;99.90;;;;;;5015220;28;20199;-68
2021/12/25 00:30:34;;;;;;;8.50;6.30;;;6.70;99.90;;;;;;5015685;28;20954;-68
2021/12/25 00:33:04;;;;;;;8.33;6.90;;;6.80;99.90;;;;;;5016486;28;21006;-68
2021/12/25 00:35:30;;;;;;;7.83;6.50;;;6.80;99.90;;;;;;5017173;28;20420;-68
2021/12/25 00:37:56;;;;;;;7.67;6.13;;;6.80;99.90;;;;;;5017728;28;20433;-68
2021/12/25 00:40:22;;;;;;;7.00;6.10;;;6.80;99.90;;;;;;5017639;28;20187;-68
2021/12/25 00:42:48;;;;;;;6.27;5.67;;;6.70;99.90;;;;;;5016597;28;20445;-67
2021/12/25 00:45:14;;;;;;;6.00;5.40;;;6.80;99.90;;;;;;5017687;28;20438;-68
2021/12/25 00:47:40;;;;;;;6.63;6.03;;;6.80;99.90;;;;;;5016922;28;20567;-68
2021/12/25 00:50:06;;;;;;;7.47;6.77;;;6.90;99.90;;;;;;5016547;28;20462;-68
2021/12/25 00:52:32;;;;;;;6.50;5.70;;;6.90;99.90;;;;;;5015860;28;20435;-68
2021/12/25 00:54:57;;;;;;;6.03;5.37;;;7.00;99.90;;;;;;5017115;28;20434;-68
2021/12/25 00:57:23;;;;;;;5.60;5.00;;;7.00;99.90;;;;;;5016486;28;20180;-68
2021/12/25 00:59:48;;;;;;;5.20;4.70;;;7.00;99.90;;;;;;5018233;28;20182;-68
2021/12/25 01:02:14;;;;;;;6.40;5.70;;;6.90;99.90;;;;;;5017809;28;20688;-68
2021/12/25 01:04:40;;;;;;;6.20;5.60;;;7.00;99.90;;;;;;5018795;28;20759;-68
2021/12/25 01:07:05;;;;;;;6.60;5.93;;;7.00;99.90;;;;;;5018402;28;20274;-68
2021/12/25 01:09:31;;;;;;;6.20;5.43;;;6.90;99.90;;;;;;5020204;28;20206;-68
2021/12/25 01:11:58;;;;;;;6.87;5.23;;;6.80;99.90;;;;;;5019689;28;20266;-68
2021/12/25 01:14:59;;;;;;;6.53;5.83;;;6.80;99.90;;;;;;5020676;28;20413;-68
2021/12/25 01:17:32;;;;;;;5.87;5.27;;;6.90;99.90;;;;;;5018155;28;20434;-68
2021/12/25 01:30:48;;;;;;;7.57;6.17;;;6.80;99.90;;;;;;5017033;28;20827;-68
2021/12/25 01:33:31;;;;;;;6.50;5.77;;;6.80;99.90;;;;;;5015684;28;20496;-68
2021/12/25 01:36:27;;;;;;;6.73;5.83;;;6.80;99.90;;;;;;5020692;28;20431;-68
2021/12/25 01:38:56;;;;;;;6.97;6.00;;;6.80;99.90;;;;;;5019059;28;20776;-68
2021/12/25 01:47:46;;;;;;;6.80;6.10;;;6.70;99.90;;;;;;5016070;28;20498;-68
2021/12/25 01:49:52;;;;;;;7.00;6.30;;;6.60;99.90;;;;;;5017158;28;20418;-67
2021/12/25 01:52:19;;;;;;;8.07;7.10;;;6.50;99.90;;;;;;5015510;28;20438;-68
2021/12/25 01:54:44;;;;;;;7.80;6.90;;;6.40;99.90;;;;;;5015595;28;20782;-68
2021/12/25 01:57:10;;;;;;;9.53;7.33;;;6.40;99.90;;;;;;5015565;28;20406;-69
2021/12/25 01:59:36;;;;;;;10.40;8.10;;;6.40;99.90;;;;;;5015957;28;20172;-68
2021/12/25 02:02:01;;;;;;;9.33;7.90;;;6.20;99.90;;;;;;5014066;28;20219;-68
2021/12/25 02:04:27;;;;;;;8.70;7.60;;;6.10;99.90;;;;;;5014462;28;20221;-68
2021/12/25 02:06:53;;;;;;;12.60;9.90;;;6.10;99.90;;;;;;5014303;28;20405;-68
2021/12/25 02:09:18;;;;;;;9.97;8.87;;;5.90;99.90;;;;;;5015187;28;20211;-68
2021/12/25 02:11:44;;;;;;;11.23;9.27;;;5.90;99.90;;;;;;5013989;28;20167;-68
2021/12/25 02:14:09;;;;;;;13.17;9.57;;;5.90;99.90;;;;;;5013689;28;20182;-68
2021/12/25 02:16:52;;;;;;;12.50;10.60;;;6.00;99.90;;;;;;5014254;28;20258;-68
2021/12/25 02:19:31;;;;;;;11.40;9.40;;;6.00;99.90;;;;;;5014057;28;20539;-68
2021/12/25 02:22:00;;;;;;;13.30;9.83;;;5.90;99.90;;;;;;5012506;28;20981;-68
2021/12/25 02:24:26;;;;;;;9.97;8.90;;;5.90;99.90;;;;;;5013329;28;20423;-68
2021/12/25 02:26:52;;;;;;;12.37;9.73;;;5.70;99.90;;;;;;5013622;28;20421;-68
2021/12/25 02:29:17;;;;;;;12.13;9.40;;;5.60;99.90;;;;;;5013726;28;20712;-68
2021/12/25 02:31:43;;;;;;;11.40;9.70;;;5.70;99.90;;;;;;5014177;28;20254;-68
2021/12/25 02:34:08;;;;;;;14.10;10.90;;;5.80;99.90;;;;;;5012965;28;20213;-68
2021/12/25 02:36:34;;;;;;;11.77;10.30;;;5.80;99.90;;;;;;5013222;28;20214;-68
2021/12/25 02:38:59;;;;;;;12.00;10.03;;;5.70;99.90;;;;;;5013583;28;20536;-68
2021/12/25 02:41:25;;;;;;;11.77;10.37;;;5.60;99.90;;;;;;5013258;28;20214;-68
2021/12/25 02:43:51;;;;;;;11.50;10.00;;;5.70;99.90;;;;;;5013718;28;20195;-68
2021/12/25 02:46:17;;;;;;;10.53;9.10;;;5.70;99.90;;;;;;5013907;28;20180;-68
2021/12/25 02:48:43;;;;;;;11.37;9.97;;;5.70;99.90;;;;;;5013983;28;20446;-68
2021/12/25 02:51:10;;;;;;;13.10;10.00;;;5.80;99.90;;;;;;5011811;28;20178;-68
2021/12/25 02:53:38;;;;;;;11.40;10.07;;;5.80;99.90;;;;;;5013454;28;20535;-68
2021/12/25 02:56:04;;;;;;;11.40;9.20;;;5.80;99.90;;;;;;5013228;28;20915;-68
2021/12/25 02:58:30;;;;;;;11.93;8.80;;;5.80;99.90;;;;;;5013848;28;20514;-68
2021/12/25 03:01:04;;;;;;;11.70;10.43;;;5.70;99.90;;;;;;5013255;28;20458;-68
2021/12/25 03:03:29;;;;;;;13.20;10.70;;;5.70;99.90;;;;;;5013634;28;20278;-68
2021/12/25 03:05:55;;;;;;;11.67;9.83;;;5.80;99.90;;;;;;5013088;28;20446;-68
2021/12/25 03:08:20;;;;;;;11.40;9.80;;;5.80;99.90;;;;;;5014212;28;20241;-68
2021/12/25 03:10:47;;;;;;;12.73;10.27;;;5.70;99.90;;;;;;5014997;28;20164;-68
2021/12/25 03:15:46;;;;;;;14.73;11.23;;;5.60;99.90;;;;;;5014971;28;20438;-68
2021/12/25 03:18:15;;;;;;;13.00;10.83;;;5.60;99.90;;;;;;5012215;28;20426;-68
2021/12/25 03:20:44;;;;;;;21.23;11.90;;;5.60;99.90;;;;;;5012766;28;20424;-68
2021/12/25 03:23:21;;;;;;;12.43;10.67;;;5.70;99.90;;;;;;5011785;28;20947;-68
2021/12/25 03:25:49;;;;;;;14.17;11.83;;;5.60;99.90;;;;;;5012681;28;20735;-68
2021/12/25 03:28:16;;;;;;;13.37;11.43;;;5.60;99.90;;;;;;5013768;28;20473;-68
2021/12/25 03:30:43;;;;;;;13.60;11.37;;;5.50;99.90;;;;;;5014627;28;20411;-68
2021/12/25 03:33:15;;;;;;;12.43;10.77;;;5.50;99.90;;;;;;5015768;28;20485;-67
2021/12/25 03:35:41;;;;;;;14.83;10.53;;;5.60;99.90;;;;;;5017254;28;20411;-68
2021/12/25 03:38:10;;;;;;;13.37;11.10;;;5.40;99.90;;;;;;5017453;28;20747;-68
2021/12/25 03:40:35;;;;;;;13.77;11.33;;;5.40;99.90;;;;;;5017421;28;20491;-68
2021/12/25 03:43:02;;;;;;;14.87;12.90;;;5.30;99.90;;;;;;5016852;28;20457;-68
2021/12/25 03:45:30;;;;;;;13.70;11.83;;;5.30;99.90;;;;;;5017075;28;20441;-68
2021/12/25 03:48:12;;;;;;;14.50;12.33;;;5.20;99.90;;;;;;5017310;28;20523;-68
2021/12/25 03:57:37;;;;;;;14.37;11.67;;;5.20;99.90;;;;;;5017476;28;20431;-68
2021/12/25 03:59:10;;;;;;;13.47;11.47;;;5.20;99.90;;;;;;4998000;28;20908;-68
2021/12/25 04:06:27;;;;;;;13.57;12.13;;;5.40;99.90;;;;;;5015506;28;20937;-67
2021/12/25 04:08:53;;;;;;;15.50;13.10;;;5.40;99.90;;;;;;5016648;28;20199;-68
2021/12/25 04:11:40;;;;;;;15.17;13.27;;;5.50;99.90;;;;;;5016647;28;20168;-68
2021/12/25 04:14:06;;;;;;;14.47;12.53;;;5.40;99.90;;;;;;5016798;28;20226;-68
2021/12/25 04:16:31;;;;;;;15.33;12.50;;;5.40;99.90;;;;;;5016019;28;20450;-68
2021/12/25 04:18:57;;;;;;;15.27;12.43;;;5.30;99.90;;;;;;5015508;28;20186;-68
2021/12/25 04:21:23;;;;;;;14.83;12.50;;;5.30;99.90;;;;;;5014172;28;20202;-68
2021/12/25 04:23:49;;;;;;;14.70;12.07;;;5.30;99.90;;;;;;5016275;28;20278;-68
2021/12/25 04:26:15;;;;;;;14.07;12.60;;;5.30;99.90;;;;;;5015974;28;20856;-68
2021/12/25 04:28:51;;;;;;;14.00;12.43;;;5.10;99.90;;;;;;5016555;28;20558;-68
2021/12/25 04:42:47;;;;;;;14.27;11.80;;;5.00;99.90;;;;;;5041522;23;20523;-69
2021/12/25 05:06:01;;;;;;;14.93;12.93;;;4.50;99.90;;;;;;5013982;28;20898;-69
2021/12/25 05:08:27;;;;;;;14.47;12.13;;;4.60;99.90;;;;;;5014301;28;20996;-70
2021/12/25 05:10:54;;;;;;;17.60;14.17;;;4.60;99.90;;;;;;5013848;28;20415;-70
2021/12/25 05:13:20;;;;;;;16.83;14.10;;;4.70;99.90;;;;;;5012851;28;20201;-70
2021/12/25 05:15:47;;;;;;;16.07;13.30;;;4.70;99.90;;;;;;5013524;28;20411;-70
2021/12/25 05:18:12;;;;;;;15.97;12.90;;;4.60;99.90;;;;;;5014071;28;20416;-70
2021/12/25 05:20:38;;;;;;;16.30;13.00;;;4.40;99.90;;;;;;5014027;28;20414;-70
2021/12/25 05:23:03;;;;;;;15.23;12.40;;;4.40;99.90;;;;;;5013518;28;20206;-70
2021/12/25 05:25:29;;;;;;;16.13;12.40;;;4.40;99.90;;;;;;5013815;28;20659;-70
2021/12/25 05:27:55;;;;;;;15.83;11.93;;;4.40;99.90;;;;;;5014021;28;20217;-70
2021/12/25 05:30:21;;;;;;;15.93;13.60;;;4.50;99.90;;;;;;5013945;28;20170;-70
2021/12/25 05:32:46;;;;;;;14.27;11.60;;;4.50;99.90;;;;;;5013210;28;20457;-70
2021/12/25 05:35:12;;;;;;;15.07;11.57;;;4.50;99.90;;;;;;5013587;28;20170;-70
2021/12/25 05:37:38;;;;;;;13.37;11.10;;;4.40;99.90;;;;;;5013564;28;20218;-70
2021/12/25 05:40:05;;;;;;;13.80;12.03;;;4.50;99.90;;;;;;5013794;28;20214;-70
2021/12/25 05:42:31;;;;;;;13.40;11.70;;;4.30;99.90;;;;;;5013398;28;20285;-70
2021/12/25 05:44:56;;;;;;;13.47;11.30;;;4.40;99.90;;;;;;5013197;28;20508;-69
2021/12/25 05:47:22;;;;;;;13.80;10.67;;;4.40;99.90;;;;;;5013342;28;20284;-71
2021/12/25 05:49:47;;;;;;;11.10;10.00;;;4.60;99.90;;;;;;5013917;28;20213;-71
2021/12/25 05:52:14;;;;;;;10.83;9.73;;;4.50;99.90;;;;;;5014208;28;20175;-70
2021/12/25 05:54:39;;;;;;;10.43;8.90;;;4.40;99.90;;;;;;5013624;28;20204;-70
2021/12/25 05:57:05;;;;;;;10.67;9.43;;;4.50;99.90;;;;;;5013753;28;20446;-70
2021/12/25 05:59:31;;;;;;;8.93;8.03;;;4.60;99.90;;;;;;5014182;28;20175;-70
2021/12/25 06:01:56;;;;;;;8.90;8.03;;;4.60;99.90;;;;;;5014092;28;20269;-70
2021/12/25 06:04:22;;;;;;;9.03;8.13;;;4.50;99.90;;;;;;5012884;28;20234;-71
2021/12/25 06:06:47;;;;;;;9.50;8.50;;;4.30;99.90;;;;;;5019274;28;20245;-70
2021/12/25 06:09:13;;;;;;;9.90;8.37;;;4.10;99.90;;;;;;5023913;28;20206;-70
2021/12/25 06:11:39;;;;;;;9.53;8.33;;;4.10;99.90;;;;;;5015334;28;20265;-71
2021/12/25 06:14:11;;;;;;;11.57;8.50;;;4.10;99.90;;;;;;5014290;28;20290;-70
2021/12/25 06:16:37;;;;;;;10.63;8.53;;;4.10;99.90;;;;;;5013659;28;20411;-70
2021/12/25 06:19:04;;;;;;;9.20;7.67;;;4.10;99.90;;;;;;5013775;28;20951;-71
2021/12/25 06:21:31;;;;;;;9.13;7.63;;;4.10;99.90;;;;;;5013498;28;20431;-71
2021/12/25 06:23:57;;;;;;;9.27;7.77;;;4.10;99.90;;;;;;5013208;28;20520;-70
2021/12/25 06:26:22;;;;;;;7.97;7.17;;;4.10;99.90;;;;;;5012251;28;20938;-70
2021/12/25 06:28:48;;;;;;;8.60;7.63;;;4.20;99.90;;;;;;5012673;28;20202;-70
2021/12/25 06:31:13;;;;;;;9.03;7.83;;;4.20;99.90;;;;;;5012605;28;20200;-71
2021/12/25 06:33:39;;;;;;;12.10;8.10;;;4.10;99.90;;;;;;5012631;28;20262;-70
2021/12/25 06:36:04;;;;;;;10.20;8.13;;;4.10;99.90;;;;;;5011006;28;20229;-70
2021/12/25 06:38:30;;;;;;;8.80;8.00;;;4.20;99.90;;;;;;5012654;28;20176;-70
2021/12/25 06:40:56;;;;;;;8.90;7.67;;;4.20;99.90;;;;;;5012140;28;20581;-71
2021/12/25 06:43:21;;;;;;;8.33;7.53;;;4.20;99.90;;;;;;5012676;28;20232;-70
2021/12/25 06:45:47;;;;;;;8.10;7.20;;;4.20;99.90;;;;;;5012239;28;20599;-70
2021/12/25 06:48:12;;;;;;;8.93;8.00;;;4.20;99.90;;;;;;5012539;28;20251;-70
2021/12/25 06:50:38;;;;;;;8.03;7.20;;;4.20;99.90;;;;;;5012352;28;20185;-70
2021/12/25 06:53:04;;;;;;;8.67;7.40;;;4.20;99.90;;;;;;5012617;28;20193;-70
2021/12/25 06:55:29;;;;;;;9.93;8.67;;;4.10;99.90;;;;;;5012038;28;20179;-70
2021/12/25 06:57:57;;;;;;;9.23;7.50;;;4.10;99.90;;;;;;5012304;28;20179;-69
2021/12/25 07:00:24;;;;;;;12.60;9.30;;;4.00;99.90;;;;;;5012214;28;20175;-70
2021/12/25 07:02:49;;;;;;;9.80;8.77;;;3.90;99.90;;;;;;5012286;28;20428;-70
2021/12/25 07:05:15;;;;;;;10.57;8.90;;;3.90;99.90;;;;;;5011710;28;20467;-70
2021/12/25 07:07:43;;;;;;;10.10;8.97;;;3.90;99.90;;;;;;5011945;28;20177;-70
2021/12/25 07:10:08;;;;;;;11.10;8.97;;;3.90;99.90;;;;;;5011796;28;20441;-70
2021/12/25 07:12:37;;;;;;;9.77;8.53;;;3.80;99.90;;;;;;5012245;28;20420;-70
2021/12/25 07:15:05;;;;;;;10.97;8.87;;;3.80;99.90;;;;;;5012394;28;20189;-70
2021/12/25 07:17:31;;;;;;;10.30;8.60;;;3.80;99.90;;;;;;5012096;28;20409;-70
2021/12/25 07:19:56;;;;;;;11.27;9.27;;;3.90;99.90;;;;;;5011952;28;20428;-70
2021/12/25 07:22:22;;;;;;;9.40;8.30;;;3.90;99.90;;;;;;5011952;28;20182;-70
2021/12/25 07:24:47;;;;;;;10.47;9.37;;;4.00;99.90;;;;;;5012006;28;20178;-71
2021/12/25 07:27:13;;;;;;;10.50;8.60;;;4.00;99.90;;;;;;5012078;28;20229;-70
2021/12/25 07:29:38;;;;;;;10.13;8.90;;;3.90;99.90;;;;;;5012171;28;20205;-70
2021/12/25 07:32:04;;;;;;;10.57;8.87;;;3.90;99.90;;;;;;5011504;28;20187;-70
2021/12/25 07:34:30;;;;;;;10.27;9.00;;;3.80;99.90;;;;;;5011811;28;20308;-69
2021/12/25 07:36:56;;;;;;;10.60;9.20;;;3.80;99.90;;;;;;5011866;28;20224;-69
2021/12/25 07:39:21;;;;;;;9.13;8.23;;;3.80;99.90;;;;;;5011784;28;20403;-70
2021/12/25 07:41:47;;;;;;;11.63;9.03;;;3.90;99.90;;;;;;5011790;28;20694;-70
2021/12/25 07:44:12;;;;;;;11.13;9.53;;;3.90;99.90;;;;;;5011958;28;20217;-69
2021/12/25 07:46:38;;;;;;;9.23;8.33;;;4.00;99.90;;;;;;5011748;28;20181;-70
2021/12/25 07:49:04;;;;;;;9.80;8.60;;;3.80;99.90;;;;;;5011922;28;20200;-70
2021/12/25 07:51:31;;;;;;;10.23;8.90;;;3.60;99.90;;;;;;5011736;28;20820;-70
2021/12/25 07:53:56;;;;;;;10.47;9.27;;;3.50;99.90;;;;;;5011954;28;20951;-70
2021/12/25 07:56:25;;;;;;;11.50;10.20;;;3.60;99.90;;;;;;5011505;28;20480;-70
2021/12/25 07:58:51;;;;;;;11.13;10.00;;;3.60;99.90;;;;;;5010495;28;20449;-71
2021/12/25 08:01:17;;;;;;;11.77;9.80;;;3.50;99.90;;;;;;5011972;28;20832;-69
2021/12/25 08:03:43;;;;;;;13.73;11.47;;;3.60;99.90;;;;;;5011268;28;20439;-69
2021/12/25 08:06:08;;;;;;;13.00;10.37;;;3.70;99.90;;;;;;5011402;28;20416;-70
2021/12/25 08:08:34;;;;;;;13.23;9.53;;;3.70;99.90;;;;;;5011701;28;20225;-69
2021/12/25 08:10:59;;;;;;;13.13;10.83;;;3.70;99.90;;;;;;5011542;28;20195;-69
2021/12/25 08:13:25;;;;;;;11.43;9.40;;;3.70;99.90;;;;;;5011405;28;20233;-70
2021/12/25 08:15:50;;;;;;;11.10;10.00;;;3.70;99.90;;;;;;5011443;28;20218;-69
2021/12/25 08:18:16;;;;;;;12.27;10.50;;;3.70;99.90;;;;;;5014491;28;20727;-69
2021/12/25 08:20:42;;;;;;;11.80;9.90;;;3.60;99.90;;;;;;5015213;28;20174;-70
2021/12/25 08:23:08;;;;;;;10.20;9.10;;;3.60;99.90;;;;;;5014758;28;20288;-70
2021/12/25 08:25:34;;;;;;;11.50;8.67;;;3.60;99.90;;;;;;5015003;28;20471;-70
2021/12/25 08:28:00;;;;;;;12.23;9.40;;;3.50;99.90;;;;;;5014986;28;20202;-70
2021/12/25 08:30:27;;;;;;;10.17;9.07;;;3.60;99.90;;;;;;5015048;28;20921;-70
2021/12/25 08:32:56;;;;;;;10.73;9.00;;;3.60;99.90;;;;;;5018923;28;20212;-70
2021/12/25 08:35:22;;;;;;;9.10;8.20;;;3.50;99.90;;;;;;5014782;28;20506;-71
2021/12/25 08:37:48;;;;;;;12.10;9.70;;;3.40;99.90;;;;;;5014811;28;20411;-70
2021/12/25 08:40:14;;;;;;;10.10;8.83;;;3.50;99.90;;;;;;5014915;28;20492;-69
2021/12/25 08:42:46;;;;;;;12.90;9.07;;;3.40;99.90;;;;;;5015142;28;20197;-70
2021/12/25 08:48:00;;;;;;;11.63;10.10;;;3.60;99.90;;;;;;5015218;28;20477;-70
2021/12/25 08:50:26;;;;;;;9.13;8.17;;;3.40;99.90;;;;;;5015799;28;20415;-70
2021/12/25 08:52:52;;;;;;;9.57;8.13;;;3.20;99.90;;;;;;5021184;28;20538;-70
2021/12/25 08:55:18;;;;;;;11.30;8.30;;;3.30;99.90;;;;;;5024310;28;20205;-72
2021/12/25 08:57:43;;;;;;;10.50;9.40;;;3.30;99.90;;;;;;5022162;28;20183;-70
2021/12/25 09:00:10;;;;;;;10.37;9.13;;;3.40;99.90;;;;;;5018962;28;20411;-71
2021/12/25 09:02:35;;;;;;;10.50;8.90;;;3.50;99.90;;;;;;5020194;28;20231;-70
2021/12/25 09:05:01;;;;;;;9.83;8.83;;;3.50;99.90;;;;;;5018087;28;20410;-70
2021/12/25 09:07:27;;;;;;;11.17;8.77;;;3.50;99.90;;;;;;5017467;28;20697;-70
2021/12/25 09:09:52;;;;;;;10.60;9.40;;;3.50;99.90;;;;;;5016012;28;20456;-70
2021/12/25 09:12:20;;;;;;;12.00;9.43;;;3.60;99.90;;;;;;5016149;28;20189;-71
2021/12/25 09:14:47;;;;;;;10.90;9.37;;;3.70;99.90;;;;;;5015504;28;20260;-69
2021/12/25 09:17:13;;;;;;;10.37;9.27;;;3.70;99.90;;;;;;5014296;28;20411;-70
2021/12/25 09:19:40;;;;;;;11.47;9.10;;;3.80;99.90;;;;;;5014430;28;20427;-71
2021/12/25 09:22:08;;;;;;;10.23;8.77;;;3.90;99.90;;;;;;5013623;28;20794;-70
2021/12/25 09:24:34;;;;;;;9.23;8.17;;;3.90;99.90;;;;;;5014493;28;20859;-71
2021/12/25 09:27:00;;;;;;;10.30;9.17;;;3.90;99.90;;;;;;5014374;28;20446;-70
2021/12/25 09:29:25;;;;;;;9.57;8.57;;;3.90;99.90;;;;;;5013450;28;20207;-71
2021/12/25 09:31:51;;;;;;;9.40;8.20;;;3.90;99.90;;;;;;5014126;28;20419;-70
2021/12/25 09:34:16;;;;;;;9.13;8.20;;;3.70;99.90;;;;;;5013511;28;20209;-70
2021/12/25 09:36:42;;;;;;;10.20;8.57;;;3.60;99.90;;;;;;5013805;28;20176;-70
2021/12/25 09:39:08;;;;;;;10.13;9.03;;;3.50;99.90;;;;;;5013607;28;20191;-70
2021/12/25 09:41:34;;;;;;;9.60;8.57;;;3.60;99.90;;;;;;5013942;28;20180;-70
2021/12/25 09:44:01;;;;;;;11.07;9.70;;;3.70;99.90;;;;;;5013666;28;20212;-70
2021/12/25 09:46:27;;;;;;;10.27;8.90;;;3.80;99.90;;;;;;5013237;28;20408;-70
2021/12/25 09:48:54;;;;;;;9.83;8.80;;;3.80;99.90;;;;;;5013498;28;21109;-70
2021/12/25 09:51:20;;;;;;;10.40;8.60;;;3.70;99.90;;;;;;5013331;28;20187;-70
2021/12/25 09:54:01;;;;;;;9.10;7.67;;;3.80;99.90;;;;;;5013587;28;20850;-70
2021/12/25 09:56:28;;;;;;;8.67;7.23;;;3.60;99.90;;;;;;5013680;28;20416;-70
2021/12/25 09:58:54;;;;;;;8.67;7.87;;;3.30;99.90;;;;;;5013043;28;20786;-70
2021/12/25 10:01:56;;;;;;;8.13;7.07;;;3.20;99.90;;;;;;5013563;28;20547;-69
2021/12/25 10:04:37;;;;;;;8.70;7.03;;;3.30;99.90;;;;;;4990671;28;20288;-70
2021/12/25 10:07:21;;;;;;;7.97;6.57;;;3.20;99.90;;;;;;4990858;28;20419;-69
2021/12/25 10:09:58;;;;;;;7.50;6.70;;;3.30;99.90;;;;;;4991437;28;20447;-70
2021/12/25 10:12:34;;;;;;;6.77;6.10;;;3.40;99.90;;;;;;4990787;28;20439;-69
2021/12/25 10:14:59;;;;;;;7.40;6.70;;;3.40;99.90;;;;;;4990910;28;20428;-71
2021/12/25 10:17:28;;;;;;;8.30;6.90;;;3.50;99.90;;;;;;4974871;28;21005;-70
2021/12/25 10:20:01;;;;;;;7.50;6.80;;;3.50;99.90;;;;;;4991069;28;20188;-69
2021/12/25 10:22:26;;;;;;;6.93;6.20;;;3.50;99.90;;;;;;4990982;28;20446;-70
2021/12/25 10:25:09;;;;;;;7.37;6.67;;;3.50;99.90;;;;;;4991222;28;20428;-69
2021/12/25 10:27:35;;;;;;;8.23;6.40;;;3.50;99.90;;;;;;4990503;28;20233;-70
2021/12/25 10:30:05;;;;;;;5.90;5.30;;;3.60;99.90;;;;;;4990968;28;20459;-70
2021/12/25 10:34:56;;;;;;;7.30;6.33;;;3.80;99.90;;;;;;5025454;23;20501;-68
2021/12/25 10:37:22;;;;;;;10.63;6.80;;;3.80;99.90;;;;;;4996017;28;20183;-68
2021/12/25 10:39:49;;;;;;;7.67;6.03;;;3.70;99.90;;;;;;5002451;28;20708;-68
2021/12/25 10:42:19;;;;;;;9.40;7.33;;;3.70;99.90;;;;;;5014678;28;20419;-68
2021/12/25 10:44:46;;;;;;;15.53;6.67;;;3.80;99.90;;;;;;5015349;28;20437;-68
2021/12/25 10:47:24;;;;;;;9.07;7.20;;;3.70;99.90;;;;;;5016672;28;20760;-68
2021/12/25 10:49:56;;;;;;;7.13;6.43;;;3.70;99.90;;;;;;5013647;28;20471;-69
2021/12/25 10:52:45;;;;;;;6.17;5.57;;;3.70;99.90;;;;;;5015145;28;20414;-68
2021/12/25 10:55:25;;;;;;;6.40;5.80;;;3.60;99.90;;;;;;4997497;28;20423;-68
2021/12/25 10:57:57;;;;;;;6.80;5.33;;;3.60;99.90;;;;;;5014513;28;20411;-68
2021/12/25 11:00:22;;;;;;;6.17;5.57;;;3.70;99.90;;;;;;5012943;28;20472;-68
2021/12/25 11:03:02;;;;;;;5.90;5.20;;;3.40;99.90;;;;;;5014824;28;20414;-69
2021/12/25 11:05:33;;;;;;;6.80;5.87;;;3.40;99.90;;;;;;5017449;28;20157;-69
2021/12/25 11:08:11;;;;;;;5.90;5.37;;;3.50;99.90;;;;;;5015692;28;20457;-68
2021/12/25 11:10:50;;;;;;;5.63;5.13;;;3.50;99.90;;;;;;5015126;28;20415;-69
2021/12/25 11:13:37;;;;;;;6.90;6.13;;;3.50;99.90;;;;;;5014491;28;20529;-68
2021/12/25 11:16:12;;;;;;;5.20;4.80;;;3.40;99.90;;;;;;5015462;28;20423;-68
2021/12/25 11:19:14;;;;;;;5.60;5.10;;;3.40;99.90;;;;;;4997887;28;20446;-69
2021/12/25 11:21:43;;;;;;;5.70;5.13;;;3.40;99.90;;;;;;4996510;28;20427;-68
2021/12/25 11:24:13;;;;;;;7.00;5.47;;;3.50;99.90;;;;;;5014560;28;20525;-68
2021/12/25 11:26:40;;;;;;;5.33;4.83;;;3.50;99.90;;;;;;5014830;28;20414;-68
2021/12/25 11:29:08;;;;;;;6.00;4.77;;;3.50;99.90;;;;;;4997146;28;20487;-67
2021/12/25 11:31:34;;;;;;;5.87;5.27;;;3.50;99.90;;;;;;5014799;28;20429;-68
2021/12/25 11:34:00;;;;;;;5.80;5.20;;;3.40;99.90;;;;;;5013009;28;20451;-68
2021/12/25 11:36:25;;;;;;;5.70;5.00;;;3.30;99.90;;;;;;5014384;28;20414;-68
2021/12/25 11:38:52;;;;;;;5.90;5.30;;;3.40;99.90;;;;;;5014483;28;20233;-68
2021/12/25 11:41:18;;;;;;;5.17;4.63;;;3.40;99.90;;;;;;5014090;28;20175;-68
2021/12/25 11:43:46;;;;;;;5.60;4.90;;;3.30;99.90;;;;;;5012898;28;20486;-68
2021/12/25 11:46:14;;;;;;;5.20;4.73;;;3.30;99.90;;;;;;5014367;28;20449;-68
2021/12/25 11:48:41;;;;;;;5.63;4.97;;;3.40;99.90;;;;;;5025277;28;20453;-70
2021/12/25 11:51:22;;;;;;;5.97;5.40;;;3.60;99.90;;;;;;5017141;28;20486;-68
2021/12/25 11:54:11;;;;;;;5.90;4.73;;;3.70;99.90;;;;;;5000946;28;20444;-68
2021/12/25 11:57:00;;;;;;;5.57;4.63;;;3.80;99.90;;;;;;5019504;28;20708;-68
2021/12/25 11:59:26;;;;;;;4.40;4.00;;;3.70;99.90;;;;;;5019628;28;20453;-68
2021/12/25 12:01:54;;;;;;;5.17;4.50;;;3.80;99.90;;;;;;5019308;28;20430;-68
2021/12/25 12:04:24;;;;;;;4.70;4.30;;;3.70;99.90;;;;;;5017221;28;20673;-67
2021/12/25 12:06:56;;;;;;;4.83;4.20;;;3.60;99.90;;;;;;5000635;28;20419;-68
2021/12/25 12:09:29;;;;;;;5.20;4.70;;;3.50;99.90;;;;;;5018975;28;20498;-69
2021/12/25 12:12:03;;;;;;;4.60;4.20;;;3.30;99.90;;;;;;5018484;28;20441;-69
2021/12/25 12:14:29;;;;;;;6.63;4.33;;;3.30;99.90;;;;;;5018464;28;20469;-68
2021/12/25 12:17:03;;;;;;;5.70;5.10;;;3.50;99.90;;;;;;5016341;28;20417;-68
2021/12/25 12:19:38;;;;;;;5.13;4.57;;;3.40;99.90;;;;;;5001005;28;20178;-68
2021/12/25 12:27:11;;;;;;;5.00;4.50;;;3.50;99.90;;;;;;5017007;28;20426;-69
2021/12/25 12:29:42;;;;;;;4.50;4.10;;;3.30;99.90;;;;;;5018217;28;20453;-68
2021/12/25 12:32:35;;;;;;;5.90;4.43;;;3.20;99.90;;;;;;5018563;28;20415;-68
2021/12/25 12:35:02;;;;;;;5.43;4.90;;;3.00;99.90;;;;;;5018861;28;20543;-67
2021/12/25 12:37:30;;;;;;;5.03;4.50;;;3.00;99.90;;;;;;5016701;28;20413;-69
2021/12/25 12:40:02;;;;;;;5.30;4.80;;;3.00;99.90;;;;;;5011145;28;20431;-68
2021/12/25 12:42:41;;;;;;;4.20;3.80;;;3.00;99.90;;;;;;4981141;28;20421;-67
2021/12/25 12:45:19;;;;;;;5.90;5.27;;;3.10;99.90;;;;;;4999236;28;20415;-68
2021/12/25 12:48:13;;;;;;;4.97;4.47;;;3.10;99.90;;;;;;4980991;28;20415;-69
2021/12/25 12:50:40;;;;;;;5.47;4.43;;;3.20;99.90;;;;;;4999489;28;20478;-69
2021/12/25 12:53:09;;;;;;;4.53;4.13;;;3.20;99.90;;;;;;4985177;28;20965;-68
2021/12/25 12:55:38;;;;;;;5.60;4.63;;;3.10;99.90;;;;;;5017737;28;20507;-69
2021/12/25 12:58:06;;;;;;;4.37;3.87;;;3.20;99.90;;;;;;5019064;28;20469;-69
2021/12/25 13:00:31;;;;;;;4.27;3.97;;;3.00;99.90;;;;;;5000033;28;20419;-69
2021/12/25 13:02:58;;;;;;;5.57;4.27;;;3.00;99.90;;;;;;5016243;28;20450;-67
2021/12/25 13:05:28;;;;;;;4.40;4.07;;;2.80;99.90;;;;;;5017118;28;20175;-69
2021/12/25 13:07:56;;;;;;;5.30;4.30;;;2.60;99.90;;;;;;5011659;28;20596;-69
2021/12/25 13:10:29;;;;;;;5.60;4.70;;;2.60;99.90;;;;;;4990555;28;20489;-68
2021/12/25 13:13:08;;;;;;;6.43;4.83;;;2.70;99.90;;;;;;5002061;28;20469;-67
2021/12/25 13:15:34;;;;;;;4.07;3.73;;;2.70;99.90;;;;;;4970743;28;20463;-67
2021/12/25 13:18:04;;;;;;;4.90;4.07;;;2.70;99.90;;;;;;4997560;28;20408;-68
2021/12/25 13:20:41;;;;;;;4.60;4.13;;;2.60;99.90;;;;;;4967095;28;20412;-68
2021/12/25 13:23:35;;;;;;;5.17;4.30;;;2.60;99.90;;;;;;4979940;28;20432;-68
2021/12/25 13:26:09;;;;;;;4.10;3.80;;;2.60;99.90;;;;;;4994530;28;20415;-68
2021/12/25 13:28:37;;;;;;;5.80;3.87;;;2.70;99.90;;;;;;4979559;28;20911;-68
2021/12/25 13:31:16;;;;;;;4.20;3.80;;;2.80;99.90;;;;;;4978566;28;20875;-68
2021/12/25 13:33:47;;;;;;;7.03;4.10;;;2.80;99.90;;;;;;4996556;28;20447;-68
2021/12/25 13:36:20;;;;;;;4.70;3.90;;;2.80;99.90;;;;;;5001522;28;20411;-68
2021/12/25 13:38:56;;;;;;;4.67;3.80;;;2.80;99.90;;;;;;4996422;28;20419;-69
2021/12/25 13:41:29;;;;;;;5.27;3.90;;;2.90;99.90;;;;;;4977330;28;20396;-69
2021/12/25 13:44:23;;;;;;;3.27;3.00;;;3.00;99.90;;;;;;4988394;28;20493;-69
2021/12/25 13:47:15;;;;;;;3.93;3.60;;;2.90;99.90;;;;;;4997125;28;20430;-68
2021/12/25 13:49:40;;;;;;;4.20;3.13;;;2.80;99.90;;;;;;4995747;28;20443;-68
2021/12/25 13:52:25;;;;;;;4.00;3.60;;;2.90;99.90;;;;;;4999178;28;20893;-68
2021/12/25 13:55:14;;;;;;;3.40;3.10;;;2.90;99.90;;;;;;5015183;28;20230;-70
2021/12/25 13:57:46;;;;;;;4.73;3.77;;;2.90;99.90;;;;;;4976008;28;20433;-68
2021/12/25 14:00:18;;;;;;;4.80;4.10;;;2.90;99.90;;;;;;4976605;28;20885;-68
2021/12/25 14:02:57;;;;;;;3.50;3.03;;;2.90;99.90;;;;;;4977367;28;20409;-69
2021/12/25 14:05:25;;;;;;;4.10;3.70;;;2.90;99.90;;;;;;4992082;28;20967;-68
2021/12/25 14:07:51;;;;;;;4.63;4.10;;;2.80;99.90;;;;;;4994333;28;20427;-71
2021/12/25 14:10:20;;;;;;;4.27;3.87;;;2.80;99.90;;;;;;4998899;28;20426;-69
2021/12/25 14:12:48;;;;;;;4.70;4.07;;;2.70;99.90;;;;;;5014523;28;20538;-70